Time;durP1;ratioP1;P1;durP2;ratioP2;P2;SDS_P1;SDS_P2;PMS_P1;PMS_P2;Temp;Humidity;BMP_temperature;BMP_pressure;BME280_temperature;BME280_humidity;BME280_pressure;Samples;Min_cycle;Max_cycle;Signal;HPM_P1;HPM_P2
2022/11/29 00:00:57;;;;;;;59.33;20.27;;;8.80;99.90;;;;;;5058809;28;20143;-83
2022/11/29 00:03:23;;;;;;;68.60;22.27;;;8.70;99.90;;;;;;5041525;28;20119;-82
2022/11/29 00:05:50;;;;;;;55.65;22.40;;;8.80;99.90;;;;;;5058584;28;20106;-83
2022/11/29 00:08:16;;;;;;;76.43;23.77;;;8.80;99.90;;;;;;5042562;28;20037;-82
2022/11/29 00:10:42;;;;;;;60.78;20.80;;;8.80;99.90;;;;;;5058870;28;20047;-82
2022/11/29 00:13:08;;;;;;;59.45;21.63;;;8.80;99.90;;;;;;5040970;28;20041;-82
2022/11/29 00:15:35;;;;;;;66.68;23.02;;;8.70;99.90;;;;;;5042190;28;20454;-82
2022/11/29 00:18:01;;;;;;;63.47;20.90;;;8.70;99.90;;;;;;5057707;28;20047;-82
2022/11/29 00:20:27;;;;;;;78.93;22.67;;;8.80;99.90;;;;;;5041242;28;20507;-83
2022/11/29 00:22:52;;;;;;;65.38;23.50;;;8.80;99.90;;;;;;5041226;28;20041;-82
2022/11/29 00:25:18;;;;;;;56.70;22.60;;;8.70;99.90;;;;;;5058295;28;20037;-82
2022/11/29 00:27:43;;;;;;;58.85;20.85;;;8.70;99.90;;;;;;5057784;28;20037;-83
2022/11/29 00:30:09;;;;;;;69.10;22.60;;;8.80;99.90;;;;;;5041278;28;20036;-83
2022/11/29 00:32:34;;;;;;;61.92;22.60;;;8.70;99.90;;;;;;5040757;28;20040;-83
2022/11/29 00:35:00;;;;;;;62.72;20.70;;;8.70;99.90;;;;;;5042172;28;20045;-83
2022/11/29 00:37:25;;;;;;;87.95;25.20;;;8.80;99.90;;;;;;5058289;28;20036;-83
2022/11/29 00:39:51;;;;;;;58.45;19.27;;;8.70;99.90;;;;;;5057460;28;20705;-83
2022/11/29 00:42:16;;;;;;;67.07;23.10;;;8.70;99.90;;;;;;5040555;28;20059;-82
2022/11/29 00:44:42;;;;;;;56.85;21.63;;;8.80;99.90;;;;;;5057807;28;20040;-82
2022/11/29 00:47:08;;;;;;;74.25;22.27;;;8.70;99.90;;;;;;5041135;28;20036;-83
2022/11/29 00:49:33;;;;;;;62.95;20.90;;;8.80;99.90;;;;;;5057410;28;20040;-83
2022/11/29 00:51:59;;;;;;;64.03;21.27;;;8.80;99.90;;;;;;5041427;28;20040;-83
2022/11/29 00:54:24;;;;;;;54.55;20.55;;;8.80;99.90;;;;;;5063846;22;20040;-77
2022/11/29 00:56:50;;;;;;;88.32;24.05;;;8.70;99.90;;;;;;5091509;28;20480;-77
2022/11/29 00:59:15;;;;;;;57.70;22.55;;;8.70;99.90;;;;;;5091639;28;20040;-77
2022/11/29 01:01:41;;;;;;;58.70;20.92;;;8.70;99.90;;;;;;5074853;28;20043;-77
2022/11/29 01:04:07;;;;;;;61.83;21.80;;;8.70;99.90;;;;;;5091271;28;20425;-76
2022/11/29 01:06:32;;;;;;;53.25;20.52;;;8.80;99.90;;;;;;5091207;28;20047;-77
2022/11/29 01:08:58;;;;;;;56.83;21.67;;;8.70;99.90;;;;;;5091574;28;20040;-77
2022/11/29 01:11:26;;;;;;;53.13;21.10;;;8.60;99.90;;;;;;5091936;28;20127;-77
2022/11/29 01:13:57;;;;;;;54.50;20.05;;;8.70;99.90;;;;;;5075350;28;20093;-77
2022/11/29 01:16:22;;;;;;;55.22;20.30;;;8.70;99.90;;;;;;5075315;28;20478;-77
2022/11/29 01:18:48;;;;;;;54.55;20.02;;;8.60;99.90;;;;;;5093829;28;20036;-77
2022/11/29 01:21:16;;;;;;;79.93;22.30;;;8.70;99.90;;;;;;5092922;28;20085;-77
2022/11/29 01:23:43;;;;;;;58.38;20.42;;;8.70;99.90;;;;;;5091274;28;20448;-76
2022/11/29 01:26:20;;;;;;;78.45;21.17;;;8.50;99.90;;;;;;5073800;28;20036;-77
2022/11/29 01:28:48;;;;;;;63.92;21.80;;;8.50;99.90;;;;;;5091185;28;20036;-77
2022/11/29 01:31:23;;;;;;;56.08;20.25;;;8.50;99.90;;;;;;5074214;28;20122;-77
2022/11/29 01:33:53;;;;;;;57.90;18.55;;;8.60;99.90;;;;;;5073947;28;20142;-77
2022/11/29 01:36:19;;;;;;;57.25;20.40;;;8.50;99.90;;;;;;5090960;28;20036;-77
2022/11/29 01:38:45;;;;;;;59.45;19.83;;;8.60;99.90;;;;;;5091230;28;20039;-77
2022/11/29 01:41:19;;;;;;;62.33;22.00;;;8.40;99.90;;;;;;5090823;28;20032;-77
2022/11/29 01:44:05;;;;;;;67.40;20.98;;;8.60;99.90;;;;;;5073793;28;20519;-77
2022/11/29 01:46:37;;;;;;;64.60;20.80;;;8.50;99.90;;;;;;5073689;28;20217;-77
2022/11/29 01:49:22;;;;;;;65.35;21.92;;;8.50;99.90;;;;;;5090739;28;20044;-77
2022/11/29 01:51:52;;;;;;;56.17;19.90;;;8.60;99.90;;;;;;5073790;28;20047;-76
2022/11/29 01:54:19;;;;;;;70.43;22.23;;;8.60;99.90;;;;;;5090230;28;20391;-77
2022/11/29 01:56:47;;;;;;;57.42;22.17;;;8.60;99.90;;;;;;5090502;28;20055;-77
2022/11/29 01:59:16;;;;;;;56.92;21.55;;;8.50;99.90;;;;;;5090748;28;20040;-77
2022/11/29 02:01:41;;;;;;;57.60;21.42;;;8.50;99.90;;;;;;5073799;28;20516;-77
2022/11/29 02:04:07;;;;;;;57.58;21.13;;;8.50;99.90;;;;;;5090157;28;20077;-77
2022/11/29 02:06:34;;;;;;;77.38;22.42;;;8.40;99.90;;;;;;5090614;28;20044;-77
2022/11/29 02:09:00;;;;;;;63.95;21.65;;;8.60;99.90;;;;;;5090394;28;20036;-77
2022/11/29 02:11:47;;;;;;;54.40;20.98;;;8.60;99.90;;;;;;5073643;28;20126;-76
2022/11/29 02:14:46;;;;;;;65.95;23.40;;;8.60;99.90;;;;;;5073060;28;20040;-76
2022/11/29 02:17:32;;;;;;;55.72;20.08;;;8.60;99.90;;;;;;5073412;28;20040;-77
2022/11/29 02:20:29;;;;;;;58.40;20.67;;;8.60;99.90;;;;;;5090398;28;20032;-77
2022/11/29 02:23:41;;;;;;;61.90;22.85;;;8.50;99.90;;;;;;5073198;28;20451;-76
2022/11/29 02:26:33;;;;;;;60.70;22.38;;;8.50;99.90;;;;;;5073342;28;20054;-77
2022/11/29 02:29:14;;;;;;;52.35;21.13;;;8.50;99.90;;;;;;5073275;28;20040;-76
2022/11/29 02:31:51;;;;;;;56.83;21.35;;;8.50;99.90;;;;;;5089991;28;20074;-77
2022/11/29 02:34:20;;;;;;;62.33;22.23;;;8.40;99.90;;;;;;5089617;28;20040;-77
2022/11/29 02:37:14;;;;;;;60.50;22.77;;;8.60;99.90;;;;;;5090101;28;20126;-77
2022/11/29 02:40:09;;;;;;;63.33;21.40;;;8.40;99.90;;;;;;5094370;28;20046;-77
2022/11/29 02:42:49;;;;;;;51.92;19.92;;;8.50;99.90;;;;;;5077144;28;20491;-77
2022/11/29 02:45:27;;;;;;;55.92;21.60;;;8.40;99.90;;;;;;5094317;28;20035;-77
2022/11/29 02:48:25;;;;;;;48.13;20.73;;;8.40;99.90;;;;;;5093989;28;20119;-76
2022/11/29 02:51:08;;;;;;;68.60;22.65;;;8.40;99.90;;;;;;5094043;28;20035;-76
2022/11/29 02:54:15;;;;;;;58.80;21.60;;;8.40;99.90;;;;;;5093668;28;20048;-76
2022/11/29 02:56:53;;;;;;;49.67;20.20;;;8.40;99.90;;;;;;5094023;28;20512;-77
2022/11/29 02:59:37;;;;;;;57.20;20.20;;;8.50;99.90;;;;;;5094104;28;20043;-77
2022/11/29 03:02:34;;;;;;;50.67;19.88;;;8.40;99.90;;;;;;5076942;28;20046;-77
2022/11/29 03:05:12;;;;;;;54.75;21.25;;;8.40;99.90;;;;;;5076779;28;20047;-77
2022/11/29 03:07:59;;;;;;;60.75;21.70;;;8.40;99.90;;;;;;5076632;28;20040;-76
2022/11/29 03:11:06;;;;;;;62.65;22.02;;;8.40;99.90;;;;;;5093558;28;20048;-77
2022/11/29 03:13:47;;;;;;;52.00;20.65;;;8.50;99.90;;;;;;5088334;28;20500;-77
2022/11/29 03:16:27;;;;;;;49.22;20.35;;;8.50;99.90;;;;;;5093719;28;20402;-77
2022/11/29 03:19:04;;;;;;;48.75;18.38;;;8.30;99.90;;;;;;5076847;28;20482;-77
2022/11/29 03:21:58;;;;;;;62.47;23.52;;;8.40;99.90;;;;;;5093702;28;20529;-77
2022/11/29 03:24:38;;;;;;;50.67;20.80;;;8.40;99.90;;;;;;5093372;28;20043;-76
2022/11/29 03:27:11;;;;;;;51.75;21.05;;;8.40;99.90;;;;;;5076933;28;20129;-77
2022/11/29 03:30:11;;;;;;;49.78;20.33;;;8.40;99.90;;;;;;5093460;28;20048;-76
2022/11/29 03:33:01;;;;;;;59.33;21.55;;;8.50;99.90;;;;;;5088029;28;20087;-77
2022/11/29 03:35:41;;;;;;;57.53;21.60;;;8.40;99.90;;;;;;5076458;28;20059;-76
2022/11/29 03:38:28;;;;;;;47.28;20.55;;;8.40;99.90;;;;;;5076661;28;20040;-77
2022/11/29 03:41:01;;;;;;;58.20;22.67;;;8.30;99.90;;;;;;5093274;28;20046;-77
2022/11/29 03:43:46;;;;;;;;;;;8.50;99.90;;;;;;5093425;28;20044;-77
2022/11/29 03:46:22;;;;;;;46.38;19.52;;;8.30;99.90;;;;;;5076197;28;19923;-77
2022/11/29 03:49:20;;;;;;;47.53;20.52;;;8.30;99.90;;;;;;5093013;28;20374;-77
2022/11/29 03:52:04;;;;;;;50.90;21.67;;;8.40;99.90;;;;;;5071208;28;20040;-77
2022/11/29 03:54:54;;;;;;;;;;;8.30;99.90;;;;;;5076123;28;20048;-77
2022/11/29 03:57:30;;;;;;;45.72;21.00;;;8.20;99.90;;;;;;5076152;28;19923;-77
2022/11/29 04:00:08;;;;;;;49.20;21.13;;;8.20;99.90;;;;;;5093049;28;20062;-76
2022/11/29 04:02:56;;;;;;;42.85;18.98;;;8.40;99.90;;;;;;5092612;28;20040;-76
2022/11/29 04:05:24;;;;;;;48.70;20.40;;;8.40;99.90;;;;;;5076078;28;20511;-77
2022/11/29 04:08:23;;;;;;;57.40;22.58;;;8.40;99.90;;;;;;5092767;28;20494;-77
2022/11/29 04:11:53;;;;;;;46.13;21.10;;;8.30;99.90;;;;;;5076062;28;20115;-76
2022/11/29 04:14:34;;;;;;;48.83;21.63;;;8.30;99.90;;;;;;5092276;28;20048;-77
2022/11/29 04:17:21;;;;;;;43.25;20.15;;;8.20;99.90;;;;;;5092579;28;20071;-77
2022/11/29 04:20:26;;;;;;;47.83;21.13;;;8.20;99.90;;;;;;5092867;28;20048;-76
2022/11/29 04:23:07;;;;;;;56.00;21.92;;;8.20;99.90;;;;;;5092420;28;20097;-76
2022/11/29 04:25:47;;;;;;;51.30;22.27;;;8.20;99.90;;;;;;5092735;28;20127;-76
2022/11/29 04:28:44;;;;;;;63.08;24.45;;;8.10;99.90;;;;;;5092420;28;20114;-77
2022/11/29 04:31:18;;;;;;;51.33;21.48;;;8.20;99.90;;;;;;5075641;28;20043;-77
2022/11/29 04:34:24;;;;;;;59.72;22.30;;;8.20;99.90;;;;;;5075160;28;20058;-76
2022/11/29 04:37:22;;;;;;;48.50;21.27;;;8.10;99.90;;;;;;5075295;28;20122;-77
2022/11/29 04:40:12;;;;;;;46.22;20.40;;;8.20;99.90;;;;;;5092172;28;20048;-76
2022/11/29 04:42:53;;;;;;;50.45;21.50;;;8.10;99.90;;;;;;5091795;28;20071;-77
2022/11/29 04:46:01;;;;;;;55.05;22.50;;;8.20;99.90;;;;;;5075408;28;20036;-77
2022/11/29 04:49:00;;;;;;;51.67;21.50;;;8.10;99.90;;;;;;5092025;28;20497;-76
2022/11/29 04:52:21;;;;;;;60.38;23.70;;;8.10;99.90;;;;;;5092187;28;20052;-76
2022/11/29 04:54:58;;;;;;;58.60;22.58;;;8.10;99.90;;;;;;5091582;28;20124;-77
2022/11/29 04:57:45;;;;;;;65.97;22.55;;;8.10;99.90;;;;;;5074944;28;20085;-77
2022/11/29 05:00:15;;;;;;;57.00;21.98;;;8.10;99.90;;;;;;5091112;28;20040;-77
2022/11/29 05:02:54;;;;;;;54.92;22.92;;;8.10;99.90;;;;;;5091721;28;20028;-76
2022/11/29 05:05:39;;;;;;;74.68;24.70;;;8.10;99.90;;;;;;5075013;28;20032;-77
2022/11/29 05:08:34;;;;;;;51.50;21.50;;;8.20;99.90;;;;;;5091528;28;20047;-76
2022/11/29 05:11:22;;;;;;;46.58;21.17;;;8.20;99.90;;;;;;5074539;28;20105;-77
2022/11/29 05:13:58;;;;;;;66.30;23.90;;;8.10;99.90;;;;;;5074400;28;20078;-76
2022/11/29 05:16:35;;;;;;;46.65;22.42;;;8.10;99.90;;;;;;5091354;28;20036;-77
2022/11/29 05:19:33;;;;;;;47.33;19.85;;;8.10;99.90;;;;;;5074370;28;20533;-76
2022/11/29 05:22:22;;;;;;;44.08;20.20;;;8.10;99.90;;;;;;5074432;28;20125;-77
2022/11/29 05:25:13;;;;;;;53.72;22.63;;;8.00;99.90;;;;;;5091195;28;20036;-76
2022/11/29 05:27:51;;;;;;;48.78;20.23;;;8.00;99.90;;;;;;5091543;28;20032;-77
2022/11/29 05:30:20;;;;;;;46.15;21.23;;;8.10;99.90;;;;;;5074491;28;20039;-76
2022/11/29 05:33:07;;;;;;;48.65;21.73;;;8.00;99.90;;;;;;5090903;28;20036;-75
2022/11/29 05:35:53;;;;;;;54.33;22.55;;;8.00;99.90;;;;;;5091029;28;20044;-77
2022/11/29 05:39:06;;;;;;;50.65;22.13;;;8.10;99.90;;;;;;5091100;28;20110;-77
2022/11/29 05:41:46;;;;;;;43.95;19.73;;;8.10;99.90;;;;;;4977610;28;20534;-77
2022/11/29 05:44:34;;;;;;;40.00;19.90;;;8.00;99.90;;;;;;4993234;28;20042;-77
2022/11/29 05:47:03;;;;;;;51.80;19.63;;;8.00;99.90;;;;;;5062072;28;20105;-77
2022/11/29 05:49:36;;;;;;;40.50;19.95;;;7.90;99.90;;;;;;5091057;28;20036;-77
2022/11/29 05:52:19;;;;;;;;;;;8.10;99.90;;;;;;5074296;28;20069;-76
2022/11/29 05:55:14;;;;;;;41.17;18.55;;;7.80;99.90;;;;;;5090441;28;19966;-76
2022/11/29 05:58:11;;;;;;;39.55;18.50;;;7.90;99.90;;;;;;5074151;28;20028;-77
2022/11/29 06:01:15;;;;;;;45.28;19.17;;;7.90;99.90;;;;;;5090873;28;20036;-77
2022/11/29 06:03:56;;;;;;;48.00;19.67;;;7.90;99.90;;;;;;5090666;28;20044;-76
2022/11/29 06:06:54;;;;;;;50.05;20.25;;;7.90;99.90;;;;;;5090559;28;20531;-77
2022/11/29 06:09:43;;;;;;;38.13;18.00;;;8.00;99.90;;;;;;5073728;28;20071;-76
2022/11/29 06:12:18;;;;;;;43.60;19.55;;;7.90;99.90;;;;;;5090588;28;20067;-77
2022/11/29 06:15:17;;;;;;;47.13;18.65;;;7.90;99.90;;;;;;5090848;28;20044;-77
2022/11/29 06:18:30;;;;;;;36.60;17.52;;;7.80;99.90;;;;;;5091671;28;20040;-77
2022/11/29 06:21:32;;;;;;;34.17;18.02;;;7.80;99.90;;;;;;5047227;28;20046;-77
2022/11/29 06:24:22;;;;;;;36.85;16.85;;;7.80;99.90;;;;;;5069858;28;20054;-77
2022/11/29 06:27:22;;;;;;;31.92;16.63;;;7.70;99.90;;;;;;5073576;28;20075;-77
2022/11/29 06:29:59;;;;;;;34.45;18.13;;;7.70;99.90;;;;;;5027229;28;20132;-77
2022/11/29 06:32:39;;;;;;;34.92;17.65;;;7.80;99.90;;;;;;5090324;28;20428;-76
2022/11/29 06:35:25;;;;;;;34.47;15.95;;;7.70;99.90;;;;;;5073122;28;20073;-77
2022/11/29 06:37:56;;;;;;;35.22;16.23;;;7.80;99.90;;;;;;5090127;28;20047;-77
2022/11/29 06:40:22;;;;;;;30.40;15.27;;;7.60;99.90;;;;;;5090234;28;20444;-77
2022/11/29 06:42:47;;;;;;;33.42;16.38;;;7.70;99.90;;;;;;5072849;28;20036;-77
2022/11/29 06:45:14;;;;;;;38.85;17.38;;;7.60;99.90;;;;;;5089893;28;20036;-77
2022/11/29 06:47:48;;;;;;;35.97;16.48;;;7.70;99.90;;;;;;5089670;28;20123;-77
2022/11/29 06:50:33;;;;;;;33.25;16.15;;;7.60;99.90;;;;;;5073048;28;20121;-77
2022/11/29 06:53:16;;;;;;;30.23;14.63;;;7.50;99.90;;;;;;5073183;28;20548;-77
2022/11/29 06:56:09;;;;;;;39.70;17.00;;;7.60;99.90;;;;;;5106625;22;20132;-85
2022/11/29 06:58:56;;;;;;;31.60;16.08;;;7.60;99.90;;;;;;5059277;28;20056;-84
2022/11/29 07:01:29;;;;;;;37.42;16.20;;;7.60;99.90;;;;;;5074004;28;20105;-85
2022/11/29 07:04:03;;;;;;;32.25;16.95;;;7.60;99.90;;;;;;5057204;28;20137;-85
2022/11/29 07:06:30;;;;;;;30.80;15.60;;;7.50;99.90;;;;;;5056557;28;20074;-84
2022/11/29 07:09:00;;;;;;;36.08;16.50;;;7.50;99.90;;;;;;5074139;28;20544;-84
2022/11/29 07:11:27;;;;;;;29.98;15.65;;;7.60;99.90;;;;;;5056981;28;20104;-85
2022/11/29 07:13:53;;;;;;;39.13;16.58;;;7.60;99.90;;;;;;5056127;28;20043;-85
2022/11/29 07:16:46;;;;;;;34.50;17.00;;;7.60;99.90;;;;;;5072408;28;20444;-85
2022/11/29 07:19:33;;;;;;;31.48;15.98;;;7.60;99.90;;;;;;5072542;28;20044;-85
2022/11/29 07:22:12;;;;;;;34.47;15.50;;;7.50;99.90;;;;;;5072598;28;20551;-85
2022/11/29 07:24:48;;;;;;;30.35;16.33;;;7.50;99.90;;;;;;5058421;28;20402;-85
2022/11/29 07:27:23;;;;;;;33.25;15.85;;;7.60;99.90;;;;;;5075409;28;20421;-85
2022/11/29 07:30:27;;;;;;;38.50;16.00;;;7.50;99.90;;;;;;5075837;28;20045;-85
2022/11/29 07:33:26;;;;;;;34.88;15.60;;;7.50;99.90;;;;;;5018941;28;20071;-84
2022/11/29 07:36:12;;;;;;;32.28;15.70;;;7.60;99.90;;;;;;5058276;28;20043;-85
2022/11/29 07:39:06;;;;;;;34.33;16.00;;;7.60;99.90;;;;;;5058619;28;20044;-84
2022/11/29 07:41:44;;;;;;;33.60;16.13;;;7.60;99.90;;;;;;5058842;28;20044;-83
2022/11/29 07:44:37;;;;;;;34.85;16.15;;;7.60;99.90;;;;;;5075186;28;20502;-83
2022/11/29 07:47:02;;;;;;;33.88;15.48;;;7.60;99.90;;;;;;5058680;28;20041;-85
2022/11/29 07:49:28;;;;;;;30.88;16.35;;;7.50;99.90;;;;;;5080652;28;20063;-84
2022/11/29 07:51:54;;;;;;;34.55;15.98;;;7.50;99.90;;;;;;5068549;28;20049;-83
2022/11/29 07:54:20;;;;;;;31.73;15.13;;;7.60;99.90;;;;;;5086693;28;20444;-82
2022/11/29 07:56:46;;;;;;;28.52;15.15;;;7.60;99.90;;;;;;5069307;28;20058;-83
2022/11/29 07:59:13;;;;;;;35.60;16.23;;;7.50;99.90;;;;;;5087686;28;20033;-82
2022/11/29 08:01:39;;;;;;;34.33;16.27;;;7.70;99.90;;;;;;5067166;28;20041;-83
2022/11/29 08:04:05;;;;;;;34.08;16.05;;;7.70;99.90;;;;;;5081528;28;20135;-83
2022/11/29 08:06:31;;;;;;;29.98;16.08;;;7.50;99.90;;;;;;5065466;28;20044;-84
2022/11/29 08:08:58;;;;;;;35.70;16.98;;;7.60;99.90;;;;;;5065112;28;20051;-83
2022/11/29 08:11:23;;;;;;;32.88;15.45;;;7.70;99.90;;;;;;5064116;28;20044;-84
2022/11/29 08:13:49;;;;;;;34.85;16.75;;;7.60;99.90;;;;;;5078843;28;20095;-84
2022/11/29 08:16:18;;;;;;;31.42;15.73;;;7.60;99.90;;;;;;5081258;28;20029;-82
2022/11/29 08:18:44;;;;;;;31.42;15.50;;;7.70;99.90;;;;;;5064180;28;20038;-82
2022/11/29 08:21:09;;;;;;;29.00;14.23;;;7.70;99.90;;;;;;5064336;28;20033;-82
2022/11/29 08:23:35;;;;;;;32.33;15.85;;;7.80;99.90;;;;;;5060554;28;20059;-83
2022/11/29 08:26:02;;;;;;;29.88;15.18;;;7.70;99.90;;;;;;5061186;28;20502;-84
2022/11/29 08:28:27;;;;;;;37.20;16.05;;;7.70;99.90;;;;;;5057299;28;20064;-84
2022/11/29 08:31:04;;;;;;;27.55;15.05;;;7.70;99.90;;;;;;5055179;28;20036;-83
2022/11/29 08:33:30;;;;;;;29.90;15.38;;;7.80;99.90;;;;;;5074979;28;20059;-84
2022/11/29 08:36:02;;;;;;;31.30;14.85;;;7.70;99.90;;;;;;5077178;28;20044;-82
2022/11/29 08:38:27;;;;;;;35.80;15.85;;;7.80;99.90;;;;;;5060654;28;20033;-84
2022/11/29 08:40:53;;;;;;;32.10;15.52;;;7.80;99.90;;;;;;5077740;28;20564;-85
2022/11/29 08:43:18;;;;;;;40.95;16.33;;;7.80;99.90;;;;;;5061158;28;20063;-84
2022/11/29 08:45:44;;;;;;;36.45;15.57;;;7.90;99.90;;;;;;5079844;28;20040;-83
2022/11/29 08:48:12;;;;;;;33.13;14.75;;;7.80;99.90;;;;;;5082012;28;20036;-82
2022/11/29 08:50:38;;;;;;;38.55;15.70;;;7.90;99.90;;;;;;5080773;28;20146;-82
2022/11/29 08:55:47;;;;;;;32.03;14.93;;;7.90;99.90;;;;;;5066999;28;20049;-83
2022/11/29 08:58:14;;;;;;;34.85;16.58;;;7.90;99.90;;;;;;5071507;28;20029;-84
2022/11/29 09:00:42;;;;;;;31.52;14.73;;;7.90;99.90;;;;;;5062165;28;20036;-84
2022/11/29 09:05:52;;;;;;;32.88;15.15;;;8.00;99.90;;;;;;5075212;28;20037;-84
2022/11/29 09:08:19;;;;;;;33.20;15.50;;;7.90;99.90;;;;;;5077415;28;20040;-88
2022/11/29 09:10:44;;;;;;;33.40;15.10;;;8.10;99.90;;;;;;5052538;28;20037;-84
2022/11/29 09:13:11;;;;;;;29.35;14.80;;;8.00;99.90;;;;;;5055931;28;20041;-84
2022/11/29 09:15:37;;;;;;;35.42;14.55;;;8.10;99.90;;;;;;5038721;28;20482;-84
2022/11/29 09:18:04;;;;;;;30.75;15.48;;;8.00;99.90;;;;;;5036586;28;20037;-83
2022/11/29 09:20:31;;;;;;;38.83;16.23;;;8.00;99.90;;;;;;5051754;28;20033;-85
2022/11/29 09:22:57;;;;;;;33.42;14.68;;;8.10;99.90;;;;;;5051368;28;20048;-85
2022/11/29 09:25:23;;;;;;;33.67;15.10;;;8.10;99.90;;;;;;5035358;28;20049;-85
2022/11/29 09:27:49;;;;;;;31.95;14.45;;;8.00;99.90;;;;;;5057003;28;20043;-82
2022/11/29 09:30:14;;;;;;;31.90;14.55;;;8.10;99.90;;;;;;5051281;28;20170;-85
2022/11/29 09:32:40;;;;;;;31.27;13.90;;;8.10;99.90;;;;;;5069757;28;20111;-82
2022/11/29 09:35:06;;;;;;;32.10;15.07;;;8.20;99.90;;;;;;5048370;28;20052;-85
2022/11/29 09:37:31;;;;;;;30.95;14.00;;;8.20;99.90;;;;;;5068882;28;20039;-84
2022/11/29 09:39:57;;;;;;;33.03;13.57;;;8.10;99.90;;;;;;5071965;28;20079;-84
2022/11/29 09:42:54;;;;;;;32.40;15.10;;;8.10;99.90;;;;;;5054764;28;20109;-84
2022/11/29 09:45:27;;;;;;;31.02;15.05;;;8.20;99.90;;;;;;5065260;28;20060;-82
2022/11/29 09:48:32;;;;;;;39.47;14.85;;;8.30;99.90;;;;;;5050392;28;20045;-84
2022/11/29 09:51:09;;;;;;;33.17;14.63;;;8.30;99.90;;;;;;5056293;28;20048;-85
2022/11/29 09:53:59;;;;;;;29.25;12.35;;;8.30;99.90;;;;;;5065640;28;20060;-85
2022/11/29 09:56:39;;;;;;;35.67;15.27;;;8.30;99.90;;;;;;5054605;28;20043;-84
2022/11/29 09:59:16;;;;;;;31.60;14.15;;;8.20;99.90;;;;;;5071421;28;20047;-85
2022/11/29 10:01:50;;;;;;;33.28;14.45;;;8.20;99.90;;;;;;5055311;28;20127;-84
2022/11/29 10:04:18;;;;;;;31.92;13.65;;;8.30;99.90;;;;;;5071501;28;20041;-86
2022/11/29 10:07:16;;;;;;;35.35;13.45;;;8.30;99.90;;;;;;5065632;28;20041;-86
2022/11/29 10:10:06;;;;;;;36.50;14.55;;;8.50;99.90;;;;;;5071933;28;20217;-85
2022/11/29 10:12:37;;;;;;;34.40;13.60;;;8.50;99.90;;;;;;5052562;28;20072;-85
2022/11/29 10:15:19;;;;;;;30.27;14.32;;;8.40;99.90;;;;;;5068771;28;20101;-85
2022/11/29 10:18:09;;;;;;;30.63;14.13;;;8.50;99.90;;;;;;5054514;28;20068;-86
2022/11/29 10:20:39;;;;;;;34.40;14.90;;;8.50;99.90;;;;;;5055848;28;20041;-84
2022/11/29 10:23:26;;;;;;;28.27;13.85;;;8.60;99.90;;;;;;5055125;28;20097;-85
2022/11/29 10:25:56;;;;;;;29.02;14.60;;;8.60;99.90;;;;;;5073257;28;20040;-86
2022/11/29 10:28:30;;;;;;;32.40;15.52;;;8.70;99.90;;;;;;5055514;28;20036;-83
2022/11/29 10:31:00;;;;;;;38.40;16.88;;;8.60;99.90;;;;;;5055210;28;20040;-84
2022/11/29 10:33:31;;;;;;;35.13;15.77;;;8.80;99.90;;;;;;5054831;28;20036;-86
2022/11/29 10:36:14;;;;;;;37.42;15.18;;;8.70;99.90;;;;;;5072212;28;20046;-84
2022/11/29 10:38:40;;;;;;;38.22;15.23;;;8.70;99.90;;;;;;5055533;28;20044;-84
2022/11/29 10:41:09;;;;;;;29.95;14.48;;;8.80;99.90;;;;;;5055833;28;20043;-84
2022/11/29 10:43:36;;;;;;;36.75;13.57;;;8.90;99.90;;;;;;5058348;28;20036;-83
2022/11/29 10:46:03;;;;;;;32.40;14.73;;;9.00;99.90;;;;;;5062297;28;20060;-83
2022/11/29 10:48:31;;;;;;;31.80;14.65;;;8.90;99.90;;;;;;5062284;28;20583;-83
2022/11/29 10:50:57;;;;;;;35.13;15.27;;;8.90;99.90;;;;;;5061404;28;20048;-84
2022/11/29 10:53:30;;;;;;;30.92;15.27;;;9.00;99.90;;;;;;5060610;28;20047;-84
2022/11/29 10:56:21;;;;;;;33.78;15.60;;;9.10;99.90;;;;;;5076635;28;20037;-83
2022/11/29 10:59:08;;;;;;;31.88;15.40;;;9.00;99.90;;;;;;5061737;28;20051;-82
2022/11/29 11:01:42;;;;;;;32.97;15.55;;;9.10;99.90;;;;;;5063574;28;20036;-83
2022/11/29 11:04:22;;;;;;;36.25;15.73;;;9.20;99.90;;;;;;5079977;28;20052;-84
2022/11/29 11:06:52;;;;;;;31.65;15.10;;;9.10;99.90;;;;;;5059666;28;20406;-84
2022/11/29 11:09:19;;;;;;;41.40;15.63;;;9.10;99.90;;;;;;5074900;28;20036;-82
2022/11/29 11:11:54;;;;;;;35.60;15.10;;;9.30;99.90;;;;;;5077894;28;20052;-83
2022/11/29 11:14:23;;;;;;;32.90;15.73;;;9.20;99.90;;;;;;5059609;28;20041;-82
2022/11/29 11:16:49;;;;;;;35.63;15.27;;;9.20;99.90;;;;;;5076235;28;20092;-82
2022/11/29 11:19:30;;;;;;;37.92;17.45;;;9.20;99.90;;;;;;5059598;28;20133;-82
2022/11/29 11:21:58;;;;;;;34.10;15.77;;;9.20;99.90;;;;;;5075028;28;20085;-82
2022/11/29 11:24:27;;;;;;;29.50;16.33;;;9.20;99.90;;;;;;5072492;28;20436;-82
2022/11/29 11:26:53;;;;;;;33.58;17.38;;;9.20;99.90;;;;;;5074748;28;20401;-83
2022/11/29 11:29:24;;;;;;;27.50;14.93;;;9.30;99.90;;;;;;5075904;28;20053;-83
2022/11/29 11:31:56;;;;;;;24.73;15.00;;;9.30;99.90;;;;;;5058447;28;20051;-81
2022/11/29 11:34:26;;;;;;;26.40;15.75;;;9.20;99.90;;;;;;5074167;28;20975;-81
2022/11/29 11:37:09;;;;;;;25.95;15.48;;;9.30;99.90;;;;;;5057894;28;20037;-82
2022/11/29 11:39:35;;;;;;;28.08;14.65;;;9.30;99.90;;;;;;5058237;28;20037;-82
2022/11/29 11:44:48;;;;;;;27.83;14.93;;;9.30;99.90;;;;;;5074391;28;20044;-83
2022/11/29 11:47:35;;;;;;;26.63;14.60;;;9.20;99.90;;;;;;5054651;28;20502;-82
2022/11/29 11:50:01;;;;;;;27.83;15.50;;;9.30;99.90;;;;;;5051489;28;20426;-83
2022/11/29 11:52:38;;;;;;;25.98;14.15;;;9.20;99.90;;;;;;5052821;28;20041;-82
2022/11/29 11:55:24;;;;;;;28.77;15.52;;;9.30;99.90;;;;;;5057665;28;20132;-82
2022/11/29 11:58:16;;;;;;;24.70;15.07;;;9.30;99.90;;;;;;5057577;28;20040;-81
2022/11/29 12:00:43;;;;;;;26.35;15.43;;;9.10;99.90;;;;;;5058325;28;20382;-82
2022/11/29 12:03:36;;;;;;;30.35;14.82;;;9.20;99.90;;;;;;5074368;28;20123;-82
2022/11/29 12:06:30;;;;;;;27.30;15.25;;;9.30;99.90;;;;;;5058249;28;20033;-82
2022/11/29 12:09:12;;;;;;;30.55;15.60;;;9.30;99.90;;;;;;5074252;28;20049;-83
2022/11/29 12:12:14;;;;;;;29.45;16.17;;;9.30;99.90;;;;;;5054333;28;20048;-82
2022/11/29 12:14:46;;;;;;;27.70;16.02;;;9.10;99.90;;;;;;5057211;28;20045;-82
2022/11/29 12:17:21;;;;;;;28.55;15.57;;;9.20;99.90;;;;;;5057844;28;20048;-82
2022/11/29 12:20:11;;;;;;;24.30;15.35;;;9.20;99.90;;;;;;5074030;28;20537;-82
2022/11/29 12:22:46;;;;;;;24.13;15.63;;;9.20;99.90;;;;;;5055770;28;20043;-83
2022/11/29 12:25:18;;;;;;;22.27;14.85;;;9.10;99.90;;;;;;5056593;28;20040;-83
2022/11/29 12:27:43;;;;;;;22.70;13.57;;;9.10;99.90;;;;;;5055693;28;20044;-84
2022/11/29 12:30:13;;;;;;;21.73;14.02;;;9.10;99.90;;;;;;5059851;28;20490;-83
2022/11/29 12:32:56;;;;;;;23.58;13.98;;;9.00;99.90;;;;;;5075257;28;20036;-84
2022/11/29 12:35:40;;;;;;;22.58;14.05;;;9.10;99.90;;;;;;5072599;28;20040;-82
2022/11/29 12:38:16;;;;;;;20.48;13.93;;;9.00;99.90;;;;;;5075991;28;20040;-82
2022/11/29 12:40:57;;;;;;;26.08;15.18;;;9.10;99.90;;;;;;5079865;28;20037;-80
2022/11/29 12:43:49;;;;;;;23.48;14.70;;;9.10;99.90;;;;;;5063678;28;20048;-81
2022/11/29 12:46:21;;;;;;;25.58;14.70;;;9.00;99.90;;;;;;5061069;28;20578;-82
2022/11/29 12:49:11;;;;;;;23.67;15.30;;;9.10;99.90;;;;;;5061678;28;20124;-81
2022/11/29 12:51:55;;;;;;;26.83;15.65;;;9.20;99.90;;;;;;5062770;28;20046;-81
2022/11/29 12:54:44;;;;;;;22.40;13.40;;;9.10;99.90;;;;;;5058808;28;20036;-79
2022/11/29 12:57:35;;;;;;;22.27;13.77;;;9.00;99.90;;;;;;5076942;28;20048;-81
2022/11/29 13:00:06;;;;;;;24.70;14.57;;;9.10;99.90;;;;;;5077496;28;20067;-82
2022/11/29 13:03:02;;;;;;;23.60;14.60;;;8.90;99.90;;;;;;5060802;28;20048;-82
2022/11/29 13:05:32;;;;;;;21.40;13.30;;;8.90;99.90;;;;;;5072125;28;20107;-81
2022/11/29 13:08:32;;;;;;;22.63;13.90;;;8.90;99.90;;;;;;5076800;28;20040;-81
2022/11/29 13:11:50;;;;;;;21.27;13.02;;;9.00;99.90;;;;;;5075879;28;20051;-82
2022/11/29 13:14:45;;;;;;;20.73;12.07;;;9.00;99.90;;;;;;5034555;28;20074;-82
2022/11/29 13:17:37;;;;;;;19.20;12.98;;;9.00;99.90;;;;;;5075390;28;20497;-82
2022/11/29 13:20:18;;;;;;;15.63;11.32;;;8.80;99.90;;;;;;5058530;28;20059;-82
2022/11/29 13:23:05;;;;;;;15.63;10.65;;;8.80;99.90;;;;;;5069094;28;20036;-81
2022/11/29 13:25:43;;;;;;;19.23;11.85;;;8.80;99.90;;;;;;5053078;28;20044;-82
2022/11/29 13:28:31;;;;;;;20.92;12.82;;;8.90;99.90;;;;;;5073477;28;20060;-82
2022/11/29 13:31:04;;;;;;;17.70;12.23;;;8.80;99.90;;;;;;5056830;28;20044;-82
2022/11/29 13:33:44;;;;;;;21.17;12.65;;;8.70;99.90;;;;;;5056678;28;20091;-81
2022/11/29 13:36:16;;;;;;;16.35;12.70;;;8.80;99.90;;;;;;5079234;28;20065;-83
2022/11/29 13:39:02;;;;;;;21.07;12.13;;;8.90;99.90;;;;;;5077716;28;20068;-82
2022/11/29 13:41:47;;;;;;;20.05;13.25;;;8.70;99.90;;;;;;5074243;28;20036;-81